createdAt,value
2023-01-06T00:01:09.289Z,54.60
2023-01-06T00:03:37.230Z,54.30
2023-01-06T00:06:06.036Z,54.30
2023-01-06T00:08:34.512Z,54.20
2023-01-06T00:11:06.083Z,54.00
2023-01-06T00:13:33.804Z,53.80
2023-01-06T00:16:05.261Z,54.00
2023-01-06T00:18:34.296Z,53.50
2023-01-06T00:21:02.199Z,54.10
2023-01-06T00:23:29.937Z,53.50
2023-01-06T00:25:57.673Z,53.30
2023-01-06T00:28:25.334Z,53.10
2023-01-06T00:30:53.730Z,53.00
2023-01-06T00:33:21.501Z,52.90
2023-01-06T00:35:50.522Z,52.60
2023-01-06T00:38:18.233Z,52.30
2023-01-06T00:40:48.204Z,52.30
2023-01-06T00:43:15.878Z,52.10
2023-01-06T00:45:43.561Z,52.00
2023-01-06T00:48:11.291Z,52.00
2023-01-06T00:50:38.952Z,51.80
2023-01-06T00:53:07.964Z,51.50
2023-01-06T00:55:36.557Z,51.30
2023-01-06T00:58:04.219Z,51.10
2023-01-06T01:00:31.895Z,51.00
2023-01-06T01:02:59.997Z,50.80
2023-01-06T01:05:27.766Z,50.80
2023-01-06T01:07:55.456Z,50.40
2023-01-06T01:10:24.480Z,50.50
2023-01-06T01:12:53.953Z,50.10
2023-01-06T01:15:22.397Z,50.00
2023-01-06T01:17:50.078Z,50.00
2023-01-06T01:20:17.894Z,49.70
2023-01-06T01:22:45.573Z,49.60
2023-01-06T01:25:13.385Z,49.40
2023-01-06T01:27:42.432Z,49.10
2023-01-06T01:30:11.004Z,49.00
2023-01-06T01:32:38.709Z,48.90
2023-01-06T01:35:07.130Z,48.90
2023-01-06T01:37:34.819Z,48.60
2023-01-06T01:40:03.857Z,48.30
2023-01-06T01:42:31.611Z,48.30
2023-01-06T01:45:02.709Z,48.00
2023-01-06T01:47:37.928Z,47.70
2023-01-06T01:50:10.448Z,47.20
2023-01-06T01:52:38.153Z,47.40
2023-01-06T01:55:06.601Z,47.40
2023-01-06T01:57:35.925Z,47.20
2023-01-06T02:00:06.312Z,46.90
2023-01-06T02:02:40.673Z,46.70
2023-01-06T02:05:09.110Z,46.70
2023-01-06T02:07:39.160Z,46.30
2023-01-06T02:10:10.293Z,46.10
2023-01-06T02:12:38.003Z,46.00
2023-01-06T02:15:15.637Z,46.00
2023-01-06T02:18:12.849Z,45.40
2023-01-06T02:21:08.789Z,45.30
2023-01-06T02:24:25.586Z,45.20
2023-01-06T02:27:10.745Z,44.30
2023-01-06T02:30:02.069Z,44.40
2023-01-06T02:32:46.992Z,44.50
2023-01-06T02:35:36.513Z,44.00
2023-01-06T02:38:09.528Z,44.20
2023-01-06T02:40:49.023Z,44.30
2023-01-06T02:43:22.220Z,43.90
2023-01-06T02:45:57.338Z,43.90
2023-01-06T02:48:29.355Z,43.50
2023-01-06T02:50:59.255Z,43.50
2023-01-06T02:53:31.830Z,43.60
2023-01-06T02:55:59.645Z,43.30
2023-01-06T02:58:29.189Z,43.40
2023-01-06T03:00:59.097Z,43.10
2023-01-06T03:03:31.580Z,42.90
2023-01-06T03:06:00.329Z,42.70
2023-01-06T03:08:29.940Z,42.80
2023-01-06T03:10:58.083Z,42.50
2023-01-06T03:13:28.760Z,42.50
2023-01-06T03:15:59.004Z,42.30
2023-01-06T03:18:26.788Z,42.00
2023-01-06T03:20:57.488Z,41.90
2023-01-06T03:23:25.178Z,41.70
2023-01-06T03:25:52.939Z,41.60
2023-01-06T03:28:24.101Z,41.50
2023-01-06T03:30:54.228Z,41.30
2023-01-06T03:33:23.925Z,41.20
2023-01-06T03:36:01.567Z,41.20
2023-01-06T03:38:35.595Z,40.50
2023-01-06T03:41:07.705Z,40.80
2023-01-06T03:43:36.605Z,40.50
2023-01-06T03:46:13.329Z,40.70
2023-01-06T03:48:48.672Z,40.30
2023-01-06T03:51:25.173Z,40.30
2023-01-06T03:53:56.584Z,40.00
2023-01-06T03:56:26.266Z,40.00
2023-01-06T03:58:55.915Z,40.10
2023-01-06T04:01:23.888Z,40.00
2023-01-06T04:03:52.987Z,40.00
2023-01-06T04:06:24.050Z,40.10
2023-01-06T04:08:52.557Z,40.00
2023-01-06T04:11:38.548Z,40.00
2023-01-06T04:14:06.666Z,39.80
2023-01-06T04:16:34.605Z,39.90
2023-01-06T04:19:03.909Z,39.60
2023-01-06T04:21:32.942Z,39.80
2023-01-06T04:24:01.181Z,39.70
2023-01-06T04:26:29.340Z,39.60
2023-01-06T04:28:57.096Z,39.70
2023-01-06T04:31:24.867Z,39.70
2023-01-06T04:33:54.833Z,39.40
2023-01-06T04:36:22.685Z,39.70
2023-01-06T04:38:55.559Z,39.50
2023-01-06T04:41:23.313Z,39.50
2023-01-06T04:43:50.986Z,39.60
2023-01-06T04:46:18.639Z,39.50
2023-01-06T04:48:46.407Z,39.80
2023-01-06T04:51:14.084Z,39.50
2023-01-06T04:53:42.055Z,39.50
2023-01-06T04:56:12.467Z,39.70
2023-01-06T04:58:40.183Z,39.50
2023-01-06T05:01:08.711Z,39.70
2023-01-06T05:03:36.889Z,39.50
2023-01-06T05:06:05.236Z,39.70
2023-01-06T05:08:33.050Z,39.60
2023-01-06T05:11:01.327Z,39.80
2023-01-06T05:13:30.454Z,39.60
2023-01-06T05:15:58.135Z,39.50
2023-01-06T05:18:25.896Z,39.60
2023-01-06T05:20:53.778Z,39.70
2023-01-06T05:23:21.529Z,39.60
2023-01-06T05:25:51.305Z,39.70
2023-01-06T05:28:19.085Z,39.50
2023-01-06T05:30:48.377Z,39.70
2023-01-06T05:33:16.103Z,39.70
2023-01-06T05:35:43.766Z,39.90
2023-01-06T05:38:11.441Z,39.80
2023-01-06T05:40:39.113Z,40.10
2023-01-06T05:43:06.815Z,39.90
2023-01-06T05:45:34.556Z,39.90
2023-01-06T05:48:03.603Z,39.90
2023-01-06T05:50:31.322Z,39.80
2023-01-06T05:53:00.060Z,40.00
2023-01-06T05:55:27.758Z,40.00
2023-01-06T05:57:55.435Z,39.90
2023-01-06T06:00:23.242Z,40.10
2023-01-06T06:02:50.923Z,40.10
2023-01-06T06:05:19.921Z,40.00
2023-01-06T06:07:53.733Z,40.00
2023-01-06T06:10:21.495Z,40.00
2023-01-06T06:12:49.161Z,40.10
2023-01-06T06:15:16.882Z,40.20
2023-01-06T06:17:44.557Z,40.30
2023-01-06T06:20:12.351Z,40.20
2023-01-06T06:22:41.342Z,40.10
2023-01-06T06:25:09.794Z,40.20
2023-01-06T06:27:38.316Z,40.30
2023-01-06T06:30:07.303Z,40.30
2023-01-06T06:32:35.018Z,40.30
2023-01-06T06:35:02.709Z,40.30
2023-01-06T06:37:30.383Z,40.30
2023-01-06T06:39:59.389Z,40.40
2023-01-06T06:42:27.089Z,40.20
2023-01-06T06:44:54.759Z,40.30
2023-01-06T06:47:22.493Z,40.40
2023-01-06T06:49:51.084Z,41.00
2023-01-06T06:52:18.777Z,40.40
2023-01-06T06:54:46.442Z,40.50
2023-01-06T06:57:15.451Z,40.50
2023-01-06T06:59:43.166Z,40.60
2023-01-06T07:02:10.861Z,40.50
2023-01-06T07:04:38.678Z,40.70
2023-01-06T07:07:06.395Z,40.50
2023-01-06T07:09:34.107Z,40.60
2023-01-06T07:12:01.765Z,40.50
2023-01-06T07:14:30.800Z,40.60
2023-01-06T07:17:01.045Z,40.80
2023-01-06T07:19:28.739Z,40.90
2023-01-06T07:21:56.429Z,40.90
2023-01-06T07:24:24.180Z,40.90
2023-01-06T07:26:51.831Z,40.90
2023-01-06T07:29:19.528Z,40.90
2023-01-06T07:31:48.592Z,40.80
2023-01-06T07:34:16.298Z,41.00
2023-01-06T07:36:43.967Z,40.90
2023-01-06T07:39:11.624Z,41.00
2023-01-06T07:41:39.307Z,41.10
2023-01-06T07:44:12.322Z,41.10
2023-01-06T07:46:39.995Z,41.10
2023-01-06T07:49:09.048Z,41.10
2023-01-06T07:51:36.743Z,41.00
2023-01-06T07:54:04.515Z,41.30
2023-01-06T07:56:32.280Z,41.20
2023-01-06T07:58:59.920Z,41.30
2023-01-06T08:01:27.707Z,41.30
2023-01-06T08:03:55.477Z,41.40
2023-01-06T08:06:24.503Z,41.40
2023-01-06T08:08:52.192Z,41.40
2023-01-06T08:11:19.938Z,41.60
2023-01-06T08:13:47.676Z,41.50
2023-01-06T08:16:15.417Z,41.50
2023-01-06T08:18:43.385Z,41.60
2023-01-06T08:21:11.571Z,41.60
2023-01-06T08:23:40.621Z,41.50
2023-01-06T08:26:09.211Z,41.30
2023-01-06T08:28:36.959Z,41.70
2023-01-06T08:31:04.923Z,41.70
2023-01-06T08:33:32.650Z,41.80
2023-01-06T08:36:00.466Z,41.50
2023-01-06T08:38:28.293Z,41.70
2023-01-06T08:40:57.719Z,41.60
2023-01-06T08:43:25.849Z,41.70
2023-01-06T08:45:53.614Z,41.70
2023-01-06T08:48:21.357Z,41.70
2023-01-06T08:50:49.068Z,41.70
2023-01-06T08:53:16.723Z,41.70
2023-01-06T08:55:44.408Z,41.70
2023-01-06T08:58:13.410Z,41.70
2023-01-06T09:00:42.010Z,41.70
2023-01-06T09:03:09.733Z,41.70
2023-01-06T09:05:37.384Z,42.30
2023-01-06T09:08:05.484Z,41.70
2023-01-06T09:10:33.153Z,41.70
2023-01-06T09:13:01.588Z,41.80
2023-01-06T09:15:30.650Z,41.90
2023-01-06T09:17:58.358Z,41.90
2023-01-06T09:20:26.097Z,42.00
2023-01-06T09:22:53.789Z,42.00
2023-01-06T09:25:22.739Z,42.00
2023-01-06T09:27:50.387Z,41.90
2023-01-06T09:30:18.506Z,41.80
2023-01-06T09:32:47.547Z,41.90
2023-01-06T09:35:15.393Z,42.30
2023-01-06T09:37:43.096Z,42.30
2023-01-06T09:40:12.470Z,42.30
2023-01-06T09:42:49.246Z,42.30
2023-01-06T09:45:17.826Z,42.40
2023-01-06T09:47:48.834Z,42.40
2023-01-06T09:50:19.811Z,42.40
2023-01-06T09:52:49.875Z,42.40
2023-01-06T09:55:19.381Z,42.40
2023-01-06T09:57:49.465Z,42.50
2023-01-06T10:00:23.346Z,42.50
2023-01-06T10:02:52.751Z,42.50
2023-01-06T10:05:21.544Z,42.50
2023-01-06T10:07:52.797Z,42.50
2023-01-06T10:10:23.483Z,42.50
2023-01-06T10:12:57.752Z,42.50
2023-01-06T10:15:29.833Z,42.50
2023-01-06T10:18:05.141Z,42.60
2023-01-06T10:20:51.045Z,42.70
2023-01-06T10:23:40.666Z,42.50
2023-01-06T10:26:12.563Z,42.40
2023-01-06T10:28:41.801Z,42.50
2023-01-06T10:31:10.420Z,42.60
2023-01-06T10:33:41.610Z,42.60
2023-01-06T10:36:12.014Z,42.60
2023-01-06T10:38:41.320Z,42.60
2023-01-06T10:41:14.121Z,42.60
2023-01-06T10:43:41.855Z,42.50
2023-01-06T10:46:09.677Z,42.50
2023-01-06T10:48:38.696Z,42.70
2023-01-06T10:51:19.311Z,42.60
2023-01-06T10:53:47.044Z,42.70
2023-01-06T10:56:14.749Z,42.70
2023-01-06T10:58:43.964Z,42.80
2023-01-06T11:01:12.557Z,42.70
2023-01-06T11:03:42.668Z,42.80
2023-01-06T11:06:16.605Z,42.70
2023-01-06T11:08:44.349Z,42.70
2023-01-06T11:11:27.735Z,42.70
2023-01-06T11:13:57.493Z,42.70
2023-01-06T11:16:26.894Z,43.00
2023-01-06T11:18:56.583Z,42.70
2023-01-06T11:21:24.436Z,42.80
2023-01-06T11:23:52.187Z,42.90
2023-01-06T11:26:22.086Z,43.00
2023-01-06T11:28:50.476Z,43.00
2023-01-06T11:31:20.705Z,42.90
2023-01-06T11:33:52.790Z,43.00
2023-01-06T11:36:22.458Z,43.00
2023-01-06T11:38:51.874Z,43.10
2023-01-06T11:41:24.245Z,43.10
2023-01-06T11:43:53.065Z,43.00
2023-01-06T11:46:22.222Z,43.00
2023-01-06T11:48:50.954Z,42.90
2023-01-06T11:51:31.040Z,43.00
2023-01-06T11:53:58.770Z,43.00
2023-01-06T11:56:26.437Z,42.80
2023-01-06T11:58:58.229Z,42.70
2023-01-06T12:01:28.616Z,42.60
2023-01-06T12:04:01.952Z,42.50
2023-01-06T12:06:33.080Z,42.50
2023-01-06T12:09:03.022Z,42.60
2023-01-06T12:11:35.158Z,42.80
2023-01-06T12:14:16.247Z,42.70
2023-01-06T12:16:53.855Z,42.60
2023-01-06T12:19:23.539Z,42.40
2023-01-06T12:21:52.605Z,42.30
2023-01-06T12:24:20.279Z,42.10
2023-01-06T12:26:47.956Z,41.80
2023-01-06T12:29:17.055Z,41.90
2023-01-06T12:31:46.350Z,41.60
2023-01-06T12:34:17.111Z,41.60
2023-01-06T12:36:47.467Z,41.40
2023-01-06T12:39:20.007Z,41.50
2023-01-06T12:41:50.535Z,41.30
2023-01-06T12:44:21.771Z,41.20
2023-01-06T12:46:53.568Z,40.80
2023-01-06T12:49:24.247Z,39.80
2023-01-06T12:51:53.022Z,39.60
2023-01-06T12:54:24.346Z,38.60
2023-01-06T12:57:00.299Z,38.50
2023-01-06T12:59:30.807Z,38.50
2023-01-06T13:02:00.864Z,34.90
2023-01-06T13:04:41.697Z,35.70
2023-01-06T13:07:12.423Z,36.10
2023-01-06T13:09:50.027Z,36.60
2023-01-06T13:12:26.989Z,36.90
2023-01-06T13:14:57.490Z,36.70
2023-01-06T13:17:28.394Z,36.90
2023-01-06T13:19:56.897Z,36.20
2023-01-06T13:22:27.284Z,35.80
2023-01-06T13:25:08.606Z,35.70
2023-01-06T13:27:55.734Z,35.50
2023-01-06T13:30:51.633Z,35.80
2023-01-06T13:33:30.330Z,36.00
2023-01-06T13:36:11.320Z,36.00
2023-01-06T13:38:50.030Z,36.70
2023-01-06T13:41:20.521Z,36.90
2023-01-06T13:43:49.056Z,36.80
2023-01-06T13:46:18.852Z,36.60
2023-01-06T13:48:49.312Z,36.70
2023-01-06T13:51:18.972Z,36.80
2023-01-06T13:53:47.067Z,36.50
2023-01-06T13:56:28.968Z,37.20
2023-01-06T13:59:19.365Z,37.10
2023-01-06T14:01:47.316Z,37.10
2023-01-06T14:04:46.819Z,37.50
2023-01-06T14:07:14.922Z,37.30
2023-01-06T14:09:47.929Z,38.30
2023-01-06T14:12:18.706Z,38.40
2023-01-06T14:14:46.667Z,38.10
2023-01-06T14:17:28.495Z,37.40
2023-01-06T14:19:56.323Z,38.40
2023-01-06T14:22:25.289Z,38.70
2023-01-06T14:24:54.123Z,38.90
2023-01-06T14:27:51.647Z,38.60
2023-01-06T14:30:24.272Z,38.40
2023-01-06T14:33:23.705Z,38.90
2023-01-06T14:35:52.081Z,39.00
2023-01-06T14:38:25.430Z,39.10
2023-01-06T14:40:56.742Z,39.30
2023-01-06T14:43:48.272Z,38.90
2023-01-06T14:46:21.275Z,38.70
2023-01-06T14:48:52.905Z,40.00
2023-01-06T14:51:21.527Z,39.80
2023-01-06T14:53:52.333Z,40.00
2023-01-06T14:56:20.816Z,39.70
2023-01-06T14:58:48.512Z,40.20
2023-01-06T15:01:24.475Z,40.60
2023-01-06T15:03:56.206Z,40.10
2023-01-06T15:06:25.049Z,39.70
2023-01-06T15:08:52.809Z,39.70
2023-01-06T15:11:26.473Z,39.80
2023-01-06T15:13:54.263Z,41.20
2023-01-06T15:16:29.079Z,40.50
2023-01-06T15:18:56.944Z,40.30
2023-01-06T15:21:25.452Z,40.10
2023-01-06T15:23:53.843Z,40.10
2023-01-06T15:26:23.954Z,39.50
2023-01-06T15:29:00.814Z,39.60
2023-01-06T15:31:31.010Z,39.70
2023-01-06T15:33:58.703Z,39.90
2023-01-06T15:36:26.406Z,39.80
2023-01-06T15:38:54.603Z,39.50
2023-01-06T15:41:34.495Z,39.60
2023-01-06T15:44:02.474Z,39.70
2023-01-06T15:46:39.478Z,39.70
2023-01-06T15:49:07.146Z,39.60
2023-01-06T15:51:34.873Z,39.20
2023-01-06T15:54:02.725Z,40.00
2023-01-06T15:56:30.499Z,39.20
2023-01-06T15:58:58.825Z,39.40
2023-01-06T16:01:26.782Z,38.90
2023-01-06T16:03:57.053Z,40.30
2023-01-06T16:06:28.881Z,39.90
2023-01-06T16:09:17.888Z,40.40
2023-01-06T16:11:58.050Z,39.10
2023-01-06T16:14:27.900Z,39.40
2023-01-06T16:17:01.308Z,39.50
2023-01-06T16:19:30.432Z,39.60
2023-01-06T16:21:58.183Z,39.70
2023-01-06T16:24:27.250Z,39.60
2023-01-06T16:26:56.163Z,40.00
2023-01-06T16:29:26.605Z,40.90
2023-01-06T16:31:54.346Z,39.90
2023-01-06T16:34:26.773Z,40.10
2023-01-06T16:36:57.246Z,40.00
2023-01-06T16:39:25.189Z,40.30
2023-01-06T16:42:38.808Z,40.70
2023-01-06T16:45:22.666Z,40.40
2023-01-06T16:47:50.507Z,40.70
2023-01-06T16:50:20.689Z,39.80
2023-01-06T16:52:52.187Z,40.00
2023-01-06T16:55:20.473Z,40.40
2023-01-06T16:57:49.872Z,40.40
2023-01-06T17:00:19.240Z,41.30
2023-01-06T17:02:47.028Z,40.60
2023-01-06T17:05:22.621Z,40.70
2023-01-06T17:07:52.147Z,40.10
2023-01-06T17:10:21.219Z,39.70
2023-01-06T17:13:19.994Z,40.00
2023-01-06T17:15:47.861Z,40.10
2023-01-06T17:18:24.949Z,40.40
2023-01-06T17:20:53.857Z,40.20
2023-01-06T17:23:23.802Z,40.40
2023-01-06T17:25:51.542Z,40.60
2023-01-06T17:28:24.187Z,40.00
2023-01-06T17:30:51.893Z,40.00
2023-01-06T17:33:20.683Z,40.60
2023-01-06T17:35:56.630Z,39.80
2023-01-06T17:38:25.865Z,40.50
2023-01-06T17:40:54.751Z,40.80
2023-01-06T17:43:26.306Z,40.40
2023-01-06T17:45:54.050Z,39.70
2023-01-06T17:48:21.775Z,39.90
2023-01-06T17:50:50.521Z,39.80
2023-01-06T17:53:36.681Z,40.20
2023-01-06T17:56:06.743Z,39.60
2023-01-06T17:58:36.584Z,39.40
2023-01-06T18:01:04.502Z,39.10
2023-01-06T18:03:33.433Z,38.40
2023-01-06T18:06:07.850Z,37.60
2023-01-06T18:08:36.991Z,38.00
2023-01-06T18:11:26.643Z,39.20
2023-01-06T18:13:54.314Z,40.20
2023-01-06T18:16:28.121Z,40.20
2023-01-06T18:19:14.649Z,40.70
2023-01-06T18:21:45.039Z,40.80
2023-01-06T18:24:16.161Z,40.90
2023-01-06T18:26:48.534Z,41.10
2023-01-06T18:29:17.827Z,41.40
2023-01-06T18:31:45.854Z,41.40
2023-01-06T18:34:28.629Z,41.50
2023-01-06T18:36:56.975Z,41.90
2023-01-06T18:39:25.923Z,42.00
2023-01-06T18:42:05.163Z,42.00
2023-01-06T18:44:34.436Z,42.20
2023-01-06T18:47:02.105Z,42.30
2023-01-06T18:49:33.026Z,42.40
2023-01-06T18:52:02.797Z,42.40
2023-01-06T18:54:30.490Z,42.50
2023-01-06T18:56:59.465Z,42.60
2023-01-06T18:59:28.651Z,42.70
2023-01-06T19:01:56.379Z,42.90
2023-01-06T19:04:28.985Z,42.90
2023-01-06T19:06:57.588Z,43.00
2023-01-06T19:09:29.464Z,43.10
2023-01-06T19:12:01.928Z,43.20
2023-01-06T19:14:30.913Z,43.30
2023-01-06T19:16:58.650Z,43.40
2023-01-06T19:19:28.710Z,43.50
2023-01-06T19:22:02.892Z,43.50
2023-01-06T19:24:49.712Z,43.60
2023-01-06T19:27:39.085Z,43.80
2023-01-06T19:30:27.401Z,43.80
2023-01-06T19:32:55.177Z,43.90
2023-01-06T19:35:24.525Z,43.80
2023-01-06T19:37:53.578Z,43.90
2023-01-06T19:40:24.346Z,44.00
2023-01-06T19:42:53.696Z,44.00
2023-01-06T19:45:29.738Z,44.10
2023-01-06T19:47:58.880Z,44.10
2023-01-06T19:50:26.550Z,44.30
2023-01-06T19:52:57.133Z,44.20
2023-01-06T19:55:25.779Z,44.30
2023-01-06T19:57:55.961Z,44.40
2023-01-06T20:00:25.987Z,44.40
2023-01-06T20:02:56.507Z,44.50
2023-01-06T20:05:24.340Z,44.50
2023-01-06T20:07:52.005Z,44.50
2023-01-06T20:10:20.545Z,44.60
2023-01-06T20:12:48.568Z,44.70
2023-01-06T20:15:17.765Z,44.70
2023-01-06T20:17:45.461Z,44.80
2023-01-06T20:20:13.158Z,44.90
2023-01-06T20:22:40.817Z,45.00
2023-01-06T20:25:09.137Z,44.90
2023-01-06T20:27:37.177Z,45.00
2023-01-06T20:30:05.659Z,45.10
2023-01-06T20:32:34.680Z,45.00
2023-01-06T20:35:02.470Z,45.20
2023-01-06T20:37:31.793Z,45.10
2023-01-06T20:39:59.486Z,45.10
2023-01-06T20:42:27.200Z,45.20
2023-01-06T20:44:54.847Z,45.20
2023-01-06T20:47:22.660Z,45.30
2023-01-06T20:49:52.267Z,45.30
2023-01-06T20:52:19.959Z,45.30
2023-01-06T20:54:47.616Z,45.30
2023-01-06T20:57:15.296Z,45.40
2023-01-06T20:59:42.970Z,45.40
2023-01-06T21:02:10.809Z,45.40
2023-01-06T21:04:38.585Z,45.40
2023-01-06T21:07:07.647Z,45.40
2023-01-06T21:09:35.313Z,45.50
2023-01-06T21:12:02.941Z,45.50
2023-01-06T21:14:32.080Z,45.50
2023-01-06T21:16:59.798Z,45.70
2023-01-06T21:19:27.590Z,45.70
2023-01-06T21:21:55.242Z,45.60
2023-01-06T21:24:25.262Z,45.70
2023-01-06T21:26:53.013Z,45.70
2023-01-06T21:29:20.903Z,45.80
2023-01-06T21:31:48.522Z,45.80
2023-01-06T21:34:16.200Z,45.80
2023-01-06T21:36:43.896Z,45.80
2023-01-06T21:39:11.847Z,45.80
2023-01-06T21:41:58.361Z,45.80
2023-01-06T21:44:26.002Z,46.00
2023-01-06T21:46:53.668Z,46.10
2023-01-06T21:49:21.382Z,46.00
2023-01-06T21:51:51.126Z,46.00
2023-01-06T21:54:18.839Z,46.10
2023-01-06T21:56:47.811Z,46.10
2023-01-06T21:59:15.520Z,46.20
2023-01-06T22:01:43.268Z,46.30
2023-01-06T22:04:11.022Z,46.20
2023-01-06T22:06:40.303Z,46.20
2023-01-06T22:09:08.155Z,46.30
2023-01-06T22:11:35.912Z,46.40
2023-01-06T22:14:05.296Z,46.40
2023-01-06T22:16:33.058Z,46.50
2023-01-06T22:19:00.733Z,46.50
2023-01-06T22:21:28.661Z,46.50
2023-01-06T22:23:56.411Z,46.50
2023-01-06T22:26:24.105Z,46.50
2023-01-06T22:28:51.995Z,46.50
2023-01-06T22:31:21.016Z,46.60
2023-01-06T22:33:48.683Z,46.60
2023-01-06T22:36:16.352Z,46.70
2023-01-06T22:38:44.067Z,46.80
2023-01-06T22:41:12.503Z,46.70
2023-01-06T22:43:40.302Z,46.70
2023-01-06T22:46:07.975Z,46.70
2023-01-06T22:48:37.015Z,46.80
2023-01-06T22:51:05.857Z,46.80
2023-01-06T22:53:33.813Z,47.50
2023-01-06T22:56:02.234Z,47.00
2023-01-06T22:58:30.057Z,47.00
2023-01-06T23:00:57.806Z,47.00
2023-01-06T23:03:25.498Z,47.10
2023-01-06T23:05:58.155Z,47.10
2023-01-06T23:08:26.697Z,47.10
2023-01-06T23:10:59.579Z,47.10
2023-01-06T23:13:27.246Z,47.20
2023-01-06T23:16:02.169Z,47.00
2023-01-06T23:18:30.996Z,47.10
2023-01-06T23:21:01.346Z,47.20
2023-01-06T23:23:29.108Z,47.20
2023-01-06T23:26:02.131Z,47.10
2023-01-06T23:28:29.800Z,47.20
2023-01-06T23:31:02.783Z,47.20
2023-01-06T23:33:30.513Z,47.30
2023-01-06T23:36:02.687Z,47.30
2023-01-06T23:38:30.625Z,47.30
2023-01-06T23:41:02.713Z,47.40
2023-01-06T23:43:31.496Z,47.40
2023-01-06T23:46:02.537Z,47.40
2023-01-06T23:48:31.153Z,47.50
2023-01-06T23:50:58.870Z,47.50
2023-01-06T23:53:28.358Z,47.50
2023-01-06T23:55:57.110Z,47.40
2023-01-06T23:58:24.935Z,47.50
